createdAt,value
2019-03-28T00:00:10.174Z,103393.38
2019-03-28T00:02:39.476Z,103396.83
2019-03-28T00:05:08.882Z,103395.11
2019-03-28T00:07:38.262Z,103391.16
2019-03-28T00:10:07.536Z,103391.13
2019-03-28T00:12:36.864Z,103391.51
2019-03-28T00:15:08.179Z,103390.61
2019-03-28T00:17:37.672Z,103385.78
2019-03-28T00:20:07.207Z,103379.13
2019-03-28T00:22:54.254Z,103376.89
2019-03-28T00:25:24.823Z,103379.57
2019-03-28T00:27:54.114Z,103379.57
2019-03-28T00:30:23.400Z,103379.97
2019-03-28T00:32:52.785Z,103384.05
2019-03-28T00:35:22.045Z,103379.67
2019-03-28T00:37:51.361Z,103375.20
2019-03-28T00:40:20.799Z,103380.13
2019-03-28T00:42:50.038Z,103385.87
2019-03-28T00:45:19.297Z,103382.83
2019-03-28T00:47:48.573Z,103380.06
2019-03-28T00:50:18.108Z,103380.06
2019-03-28T00:52:47.376Z,103380.44
2019-03-28T00:55:16.650Z,103378.62
2019-03-28T00:57:45.896Z,103374.77
2019-03-28T01:00:17.110Z,103377.36
2019-03-28T01:02:46.611Z,103369.80
2019-03-28T01:05:16.098Z,103368.48
2019-03-28T01:07:45.366Z,103364.92
2019-03-28T01:10:14.969Z,103364.92
2019-03-28T01:12:44.272Z,103365.21
2019-03-28T01:15:13.556Z,103354.20
2019-03-28T01:17:42.813Z,103361.28
2019-03-28T01:20:12.164Z,103363.02
2019-03-28T01:22:41.455Z,103359.95
2019-03-28T01:25:10.857Z,103363.95
2019-03-28T01:27:40.138Z,103360.83
2019-03-28T01:30:10.155Z,103359.16
2019-03-28T01:32:39.577Z,103365.33
2019-03-28T01:35:09.053Z,103364.12
2019-03-28T01:37:38.353Z,103363.31
2019-03-28T01:40:08.214Z,103359.74
2019-03-28T01:42:37.592Z,103365.19
2019-03-28T01:45:08.239Z,103365.13
2019-03-28T01:47:37.615Z,103363.84
2019-03-28T01:50:07.072Z,103372.42
2019-03-28T01:52:36.325Z,103364.41
2019-03-28T01:55:07.839Z,103364.41
2019-03-28T01:57:37.080Z,103358.11
2019-03-28T02:00:08.974Z,103358.11
2019-03-28T02:02:38.236Z,103352.36
2019-03-28T02:05:08.360Z,103360.38
2019-03-28T02:07:37.622Z,103373.38
2019-03-28T02:10:07.162Z,103357.28
2019-03-28T02:12:36.570Z,103363.47
2019-03-28T02:15:08.292Z,103363.47
2019-03-28T02:17:37.623Z,103366.05
2019-03-28T02:20:07.955Z,103366.99
2019-03-28T02:22:37.298Z,103370.41
2019-03-28T02:25:08.394Z,103370.41
2019-03-28T02:27:37.651Z,103362.82
2019-03-28T02:30:09.068Z,103366.45
2019-03-28T02:32:38.379Z,103366.45
2019-03-28T02:35:07.693Z,103352.66
2019-03-28T02:37:36.871Z,103353.05
2019-03-28T02:40:07.744Z,103354.39
2019-03-28T02:42:36.929Z,103359.20
2019-03-28T02:45:07.417Z,103359.20
2019-03-28T02:47:36.948Z,103357.45
2019-03-28T02:50:07.358Z,103354.31
2019-03-28T02:52:36.858Z,103350.38
2019-03-28T02:55:07.687Z,103349.03
2019-03-28T02:57:41.675Z,103354.80
2019-03-28T03:00:08.335Z,103350.95
2019-03-28T03:02:37.544Z,103344.25
2019-03-28T03:05:08.117Z,103351.39
2019-03-28T03:07:37.497Z,103344.64
2019-03-28T03:10:07.899Z,103353.05
2019-03-28T03:12:37.270Z,103357.92
2019-03-28T03:15:07.620Z,103357.92
2019-03-28T03:17:36.936Z,103353.05
2019-03-28T03:20:08.172Z,103354.31
2019-03-28T03:22:37.376Z,103354.31
2019-03-28T03:25:08.248Z,103354.28
2019-03-28T03:27:37.548Z,103359.73
2019-03-28T03:30:10.107Z,103352.63
2019-03-28T03:32:39.433Z,103355.66
2019-03-28T03:35:09.193Z,103355.66
2019-03-28T03:37:38.396Z,103352.97
2019-03-28T03:40:09.535Z,103349.00
2019-03-28T03:42:39.011Z,103352.55
2019-03-28T03:45:09.316Z,103352.55
2019-03-28T03:47:38.920Z,103350.34
2019-03-28T03:50:08.703Z,103349.41
2019-03-28T03:52:37.917Z,103359.63
2019-03-28T03:55:07.840Z,103359.63
2019-03-28T03:57:37.116Z,103359.76
2019-03-28T04:00:09.838Z,103359.76
2019-03-28T04:02:39.206Z,103358.01
2019-03-28T04:05:08.598Z,103356.75
2019-03-28T04:07:37.799Z,103346.13
2019-03-28T04:10:09.002Z,103346.13
2019-03-28T04:12:38.491Z,103356.21
2019-03-28T04:15:07.972Z,103367.94
2019-03-28T04:17:39.100Z,103360.84
2019-03-28T04:20:10.464Z,103370.70
2019-03-28T04:22:39.671Z,103373.88
2019-03-28T04:25:10.926Z,103364.45
2019-03-28T04:27:41.202Z,103364.45
2019-03-28T04:30:11.027Z,103368.44
2019-03-28T04:32:41.121Z,103368.44
2019-03-28T04:35:10.445Z,103363.92
2019-03-28T04:37:39.997Z,103365.67
2019-03-28T04:40:11.252Z,103371.50
2019-03-28T04:42:40.426Z,103371.50
2019-03-28T04:45:11.828Z,103376.83
2019-03-28T04:47:40.979Z,103366.61
2019-03-28T04:50:12.805Z,103366.61
2019-03-28T04:52:42.101Z,103373.16
2019-03-28T04:55:13.319Z,103373.70
2019-03-28T04:57:42.490Z,103371.09
2019-03-28T05:00:12.685Z,103371.48
2019-03-28T05:02:45.831Z,103375.97
2019-03-28T05:05:13.739Z,103375.97
2019-03-28T05:07:42.920Z,103377.73
2019-03-28T05:10:15.331Z,103374.08
2019-03-28T05:12:46.445Z,103387.55
2019-03-28T05:15:20.235Z,103387.08
2019-03-28T05:17:49.436Z,103384.81
2019-03-28T05:20:19.139Z,103384.81
2019-03-28T05:22:49.159Z,103392.44
2019-03-28T05:25:18.418Z,103392.44
2019-03-28T05:27:50.375Z,103396.39
2019-03-28T05:30:19.887Z,103389.31
2019-03-28T05:32:49.131Z,103389.31
2019-03-28T05:35:18.352Z,103394.19
2019-03-28T05:37:47.527Z,103391.91
2019-03-28T05:40:16.838Z,103391.91
2019-03-28T05:42:47.960Z,103391.05
2019-03-28T05:45:19.020Z,103385.66
2019-03-28T05:47:48.209Z,103379.59
2019-03-28T05:50:19.271Z,103379.59
2019-03-28T05:52:50.494Z,103380.10
2019-03-28T05:55:19.776Z,103392.55
2019-03-28T05:57:49.118Z,103400.08
2019-03-28T06:00:18.356Z,103400.08
2019-03-28T06:02:47.547Z,103404.02
2019-03-28T06:05:17.061Z,103404.02
2019-03-28T06:07:46.211Z,103397.72
2019-03-28T06:10:16.523Z,103402.22
2019-03-28T06:12:47.690Z,103402.22
2019-03-28T06:15:18.756Z,103405.37
2019-03-28T06:17:48.536Z,103407.51
2019-03-28T06:20:18.857Z,103409.70
2019-03-28T06:22:48.054Z,103412.30
2019-03-28T06:25:17.258Z,103408.27
2019-03-28T06:27:46.656Z,103408.27
2019-03-28T06:30:18.442Z,103414.97
2019-03-28T06:32:47.839Z,103415.28
2019-03-28T06:35:17.702Z,103423.64
2019-03-28T06:37:47.493Z,103427.17
2019-03-28T06:40:17.053Z,103430.80
2019-03-28T06:42:48.308Z,103430.80
2019-03-28T06:45:19.446Z,103435.18
2019-03-28T06:47:50.536Z,103430.83
2019-03-28T06:50:21.601Z,103430.83
2019-03-28T06:52:52.701Z,103426.80
2019-03-28T06:55:24.224Z,103438.30
2019-03-28T06:57:55.656Z,103423.03
2019-03-28T07:00:26.724Z,103431.92
2019-03-28T07:02:57.766Z,103434.16
2019-03-28T07:05:28.846Z,103439.03
2019-03-28T07:07:59.956Z,103430.05
2019-03-28T07:10:31.029Z,103430.05
2019-03-28T07:13:02.121Z,103438.95
2019-03-28T07:18:11.860Z,103435.00
2019-03-28T07:20:42.983Z,103435.00
2019-03-28T07:23:14.028Z,103452.20
2019-03-28T07:25:45.193Z,103452.20
2019-03-28T07:28:32.276Z,103450.78
2019-03-28T07:31:19.527Z,103449.89
2019-03-28T07:33:50.605Z,103450.53
2019-03-28T07:36:21.659Z,103456.28
2019-03-28T07:38:52.707Z,103460.78
2019-03-28T07:41:21.953Z,103454.35
2019-03-28T07:43:51.228Z,103458.28
2019-03-28T07:46:20.395Z,103445.84
2019-03-28T07:48:49.585Z,103448.81
2019-03-28T07:51:18.858Z,103452.79
2019-03-28T07:53:48.190Z,103452.42
2019-03-28T07:56:17.384Z,103460.28
2019-03-28T07:58:46.649Z,103462.12
2019-03-28T08:01:18.133Z,103460.78
2019-03-28T08:03:46.723Z,103462.62
2019-03-28T08:06:15.958Z,103462.03
2019-03-28T08:08:45.216Z,103465.48
2019-03-28T08:11:14.493Z,103465.84
2019-03-28T08:13:43.674Z,103467.50
2019-03-28T08:16:12.865Z,103470.94
2019-03-28T08:18:42.187Z,103473.02
2019-03-28T08:21:11.425Z,103468.34
2019-03-28T08:23:40.700Z,103476.73
2019-03-28T08:26:10.058Z,103470.19
2019-03-28T08:28:39.212Z,103473.65
2019-03-28T08:31:08.756Z,103471.09
2019-03-28T08:33:40.512Z,103474.36
2019-03-28T08:36:10.301Z,103464.80
2019-03-28T08:38:41.798Z,103472.17
2019-03-28T08:41:11.038Z,103469.56
2019-03-28T08:43:40.245Z,103470.55
2019-03-28T08:46:09.437Z,103471.88
2019-03-28T08:48:38.736Z,103472.14
2019-03-28T08:51:07.943Z,103474.08
2019-03-28T08:53:37.169Z,103469.89
2019-03-28T08:56:06.693Z,103479.86
2019-03-28T08:58:38.095Z,103479.08
2019-03-28T09:01:07.851Z,103474.42
2019-03-28T09:03:37.018Z,103474.64
2019-03-28T09:06:06.323Z,103477.77
2019-03-28T09:08:36.119Z,103480.16
2019-03-28T09:11:05.393Z,103474.95
2019-03-28T09:13:34.592Z,103469.19
2019-03-28T09:16:03.745Z,103472.56
2019-03-28T09:18:33.091Z,103479.30
2019-03-28T09:21:02.255Z,103471.89
2019-03-28T09:23:31.901Z,103471.44
2019-03-28T09:26:04.212Z,103474.05
2019-03-28T09:28:33.995Z,103475.45
2019-03-28T09:31:04.591Z,103479.03
2019-03-28T09:33:35.340Z,103481.08
2019-03-28T09:36:07.388Z,103472.27
2019-03-28T09:38:38.434Z,103474.73
2019-03-28T09:41:09.626Z,103475.22
2019-03-28T09:43:38.917Z,103470.48
2019-03-28T09:46:08.214Z,103475.48
2019-03-28T09:48:41.515Z,103474.33
2019-03-28T09:51:10.697Z,103473.65
2019-03-28T09:53:40.155Z,103461.13
2019-03-28T09:56:09.458Z,103470.01
2019-03-28T09:58:38.722Z,103474.09
2019-03-28T10:01:08.159Z,103472.27
2019-03-28T10:03:37.525Z,103465.67
2019-03-28T10:06:06.967Z,103464.23
2019-03-28T10:08:36.206Z,103464.79
2019-03-28T10:11:05.871Z,103467.73
2019-03-28T10:13:35.155Z,103472.27
2019-03-28T10:16:06.222Z,103461.87
2019-03-28T10:18:36.074Z,103467.50
2019-03-28T10:21:05.499Z,103470.13
2019-03-28T10:23:34.859Z,103472.80
2019-03-28T10:26:04.687Z,103463.86
2019-03-28T10:28:34.075Z,103474.34
2019-03-28T10:31:15.817Z,103476.47
2019-03-28T10:33:34.223Z,103471.51
2019-03-28T10:36:03.421Z,103471.51
2019-03-28T10:38:32.764Z,103477.94
2019-03-28T10:41:02.641Z,103483.13
2019-03-28T10:43:33.262Z,103474.79
2019-03-28T10:46:02.499Z,103475.00
2019-03-28T10:48:32.400Z,103470.47
2019-03-28T10:51:01.545Z,103476.47
2019-03-28T10:53:30.726Z,103476.47
2019-03-28T10:56:00.780Z,103476.11
2019-03-28T10:58:29.998Z,103475.30
2019-03-28T11:00:59.547Z,103484.67
2019-03-28T11:03:28.818Z,103482.12
2019-03-28T11:05:58.573Z,103484.86
2019-03-28T11:08:27.840Z,103483.63
2019-03-28T11:10:57.087Z,103483.02
2019-03-28T11:13:26.374Z,103478.77
2019-03-28T11:15:55.646Z,103480.23
2019-03-28T11:18:24.882Z,103472.16
2019-03-28T11:20:54.061Z,103472.39
2019-03-28T11:23:23.526Z,103477.91
2019-03-28T11:25:52.806Z,103475.88
2019-03-28T11:28:23.523Z,103476.58
2019-03-28T11:30:52.801Z,103471.76
2019-03-28T11:33:22.307Z,103468.00
2019-03-28T11:35:51.748Z,103475.89
2019-03-28T11:38:20.998Z,103484.83
2019-03-28T11:40:52.087Z,103467.08
2019-03-28T11:43:21.327Z,103477.59
2019-03-28T11:45:52.088Z,103477.59
2019-03-28T11:48:21.285Z,103467.74
2019-03-28T11:50:50.610Z,103469.23
2019-03-28T11:53:19.784Z,103467.50
2019-03-28T11:55:49.112Z,103472.55
2019-03-28T11:58:18.371Z,103471.78
2019-03-28T12:00:49.053Z,103471.98
2019-03-28T12:03:18.274Z,103457.34
2019-03-28T12:05:47.419Z,103457.34
2019-03-28T12:08:16.997Z,103457.79
2019-03-28T12:10:46.897Z,103457.79
2019-03-28T12:13:18.068Z,103458.18
2019-03-28T12:15:49.159Z,103460.04
2019-03-28T12:18:20.209Z,103450.16
2019-03-28T12:20:51.326Z,103450.16
2019-03-28T12:23:22.641Z,103445.61
2019-03-28T12:25:53.686Z,103463.05
2019-03-28T12:28:24.731Z,103429.27
2019-03-28T12:30:55.870Z,103443.52
2019-03-28T12:33:26.958Z,103443.52
2019-03-28T12:35:58.030Z,103442.30
2019-03-28T12:38:29.145Z,103433.77
2019-03-28T12:41:00.302Z,103433.77
2019-03-28T12:43:31.393Z,103435.24
2019-03-28T12:46:02.545Z,103435.24
2019-03-28T12:48:33.691Z,103435.53
2019-03-28T12:53:43.334Z,103428.23
2019-03-28T12:56:14.385Z,103428.23
2019-03-28T12:58:45.430Z,103426.87
2019-03-28T13:01:16.500Z,103424.58
2019-03-28T13:04:03.469Z,103420.16
2019-03-28T13:06:50.501Z,103420.13
2019-03-28T13:09:21.592Z,103416.50
2019-03-28T13:11:52.687Z,103404.91
2019-03-28T13:14:40.317Z,103405.87
2019-03-28T13:17:11.387Z,103389.88
2019-03-28T13:19:40.731Z,103404.08
2019-03-28T13:22:10.164Z,103402.03
2019-03-28T13:24:39.360Z,103404.52
2019-03-28T13:27:08.577Z,103407.05
2019-03-28T13:29:37.748Z,103392.73
2019-03-28T13:32:06.963Z,103397.32
2019-03-28T13:34:36.157Z,103403.89
2019-03-28T13:37:05.585Z,103397.24
2019-03-28T13:39:34.726Z,103400.39
2019-03-28T13:42:03.940Z,103403.83
2019-03-28T13:44:33.181Z,103402.20
2019-03-28T13:47:02.271Z,103402.61
2019-03-28T13:49:31.477Z,103397.72
2019-03-28T13:52:00.731Z,103406.03
2019-03-28T13:54:29.974Z,103407.23
2019-03-28T13:56:59.184Z,103403.30
2019-03-28T13:59:28.427Z,103401.81
2019-03-28T14:01:57.709Z,103404.98
2019-03-28T14:04:26.974Z,103403.86
2019-03-28T14:06:56.652Z,103395.31
2019-03-28T14:09:25.942Z,103395.81
2019-03-28T14:11:55.182Z,103395.59
2019-03-28T14:14:24.343Z,103389.01
2019-03-28T14:16:53.742Z,103389.01
2019-03-28T14:19:22.876Z,103387.44
2019-03-28T14:21:52.031Z,103387.44
2019-03-28T14:24:21.180Z,103378.31
2019-03-28T14:26:50.346Z,103368.72
2019-03-28T14:29:19.584Z,103365.87
2019-03-28T14:31:48.882Z,103363.98
2019-03-28T14:34:18.100Z,103361.30
2019-03-28T14:36:47.236Z,103353.99
2019-03-28T14:39:16.575Z,103357.88
2019-03-28T14:41:46.515Z,103352.02
2019-03-28T14:44:18.202Z,103336.09
2019-03-28T14:46:47.616Z,103357.39
2019-03-28T14:49:16.834Z,103349.81
2019-03-28T14:51:46.193Z,103358.31
2019-03-28T14:54:17.225Z,103355.63
2019-03-28T14:56:49.507Z,103357.13
2019-03-28T14:59:32.035Z,103361.27
2019-03-28T15:01:52.670Z,103348.74
2019-03-28T15:04:21.816Z,103354.52
2019-03-28T15:06:51.355Z,103340.58
2019-03-28T15:09:22.157Z,103342.66
2019-03-28T15:11:51.308Z,103342.59
2019-03-28T15:14:20.473Z,103339.91
2019-03-28T15:16:49.592Z,103330.39
2019-03-28T15:19:18.868Z,103330.39
2019-03-28T15:21:48.145Z,103341.95
2019-03-28T15:24:19.176Z,103336.25
2019-03-28T15:26:50.427Z,103331.86
2019-03-28T15:29:19.745Z,103332.41
2019-03-28T15:31:49.036Z,103330.56
2019-03-28T15:34:18.249Z,103326.53
2019-03-28T15:36:47.784Z,103330.69
2019-03-28T15:39:17.050Z,103324.27
2019-03-28T15:41:48.098Z,103327.13
2019-03-28T15:44:17.314Z,103326.66
2019-03-28T15:46:48.351Z,103325.61
2019-03-28T15:49:17.784Z,103325.23
2019-03-28T15:51:46.941Z,103316.70
2019-03-28T15:54:16.654Z,103320.73
2019-03-28T15:56:45.910Z,103327.33
2019-03-28T15:59:15.621Z,103319.23
2019-03-28T16:01:44.752Z,103323.97
2019-03-28T16:04:13.959Z,103320.39
2019-03-28T16:06:43.104Z,103325.05
2019-03-28T16:09:18.308Z,103324.16
2019-03-28T16:11:47.278Z,103326.39
2019-03-28T16:14:18.024Z,103319.09
2019-03-28T16:16:49.060Z,103318.04
2019-03-28T16:19:18.316Z,103313.56
2019-03-28T16:21:49.098Z,103315.41
2019-03-28T16:24:18.395Z,103321.56
2019-03-28T16:26:47.598Z,103322.98
2019-03-28T16:29:16.809Z,103322.98
2019-03-28T16:31:46.266Z,103320.80
2019-03-28T16:34:15.391Z,103315.92
2019-03-28T16:36:44.711Z,103308.02
2019-03-28T16:39:13.803Z,103308.02
2019-03-28T16:41:42.989Z,103310.73
2019-03-28T16:44:12.195Z,103310.73
2019-03-28T16:46:41.322Z,103309.92
2019-03-28T16:49:10.528Z,103303.60
2019-03-28T16:51:39.622Z,103304.78
2019-03-28T16:54:09.009Z,103306.96
2019-03-28T16:56:38.121Z,103306.96
2019-03-28T16:59:07.575Z,103298.57
2019-03-28T17:01:36.675Z,103310.13
2019-03-28T17:04:19.748Z,103312.38
2019-03-28T17:06:38.634Z,103309.08
2019-03-28T17:09:08.337Z,103312.42
2019-03-28T17:11:37.719Z,103302.22
2019-03-28T17:14:06.812Z,103300.34
2019-03-28T17:16:36.159Z,103299.02
2019-03-28T17:19:05.327Z,103304.87
2019-03-28T17:21:36.334Z,103295.77
2019-03-28T17:24:05.543Z,103304.27
2019-03-28T17:26:34.638Z,103306.86
2019-03-28T17:29:04.450Z,103308.00
2019-03-28T17:31:35.475Z,103307.74
2019-03-28T17:34:04.939Z,103306.30
2019-03-28T17:36:34.156Z,103312.02
2019-03-28T17:39:05.099Z,103312.11
2019-03-28T17:41:36.127Z,103306.80
2019-03-28T17:44:07.861Z,103305.98
2019-03-28T17:46:37.482Z,103293.91
2019-03-28T17:49:06.950Z,103300.52
2019-03-28T17:51:36.241Z,103303.61
2019-03-28T17:54:05.862Z,103300.03
2019-03-28T17:56:35.788Z,103310.41
2019-03-28T17:59:04.986Z,103310.23
2019-03-28T18:01:34.720Z,103310.23
2019-03-28T18:04:04.114Z,103312.95
2019-03-28T18:06:35.257Z,103308.03
2019-03-28T18:09:07.558Z,103308.03
2019-03-28T18:11:38.553Z,103311.14
2019-03-28T18:14:09.577Z,103316.12
2019-03-28T18:16:40.575Z,103316.12
2019-03-28T18:19:12.176Z,103310.77
2019-03-28T18:21:43.232Z,103310.77
2019-03-28T18:24:14.251Z,103314.41
2019-03-28T18:26:45.267Z,103314.41
2019-03-28T18:29:19.095Z,103315.22
2019-03-28T18:31:50.620Z,103308.44
2019-03-28T18:34:21.750Z,103316.96
2019-03-28T18:39:31.400Z,103320.63
2019-03-28T18:42:02.429Z,103318.30
2019-03-28T18:44:33.548Z,103314.37
2019-03-28T18:47:04.634Z,103315.25
2019-03-28T18:49:51.711Z,103318.33
2019-03-28T18:52:38.854Z,103318.33
2019-03-28T18:55:10.759Z,103320.09
2019-03-28T18:57:42.562Z,103318.27
2019-03-28T19:00:29.483Z,103325.34
2019-03-28T19:03:01.072Z,103326.11
2019-03-28T19:05:32.134Z,103324.86
2019-03-28T19:10:45.318Z,103334.97
2019-03-28T19:13:16.394Z,103330.90
2019-03-28T19:15:47.390Z,103326.70
2019-03-28T19:22:17.929Z,103329.15
2019-03-28T19:25:07.303Z,103328.80
2019-03-28T19:27:39.027Z,103325.36
2019-03-28T19:30:12.569Z,103330.20
2019-03-28T19:32:59.454Z,103328.05
2019-03-28T19:35:50.536Z,103328.05
2019-03-28T19:38:21.644Z,103333.33
2019-03-28T19:40:50.843Z,103333.33
2019-03-28T19:43:22.090Z,103331.49
2019-03-28T19:45:50.888Z,103336.93
2019-03-28T19:48:20.093Z,103335.63
2019-03-28T19:50:49.396Z,103333.89
2019-03-28T19:53:18.603Z,103340.52
2019-03-28T19:55:47.792Z,103333.03
2019-03-28T19:58:16.926Z,103333.03
2019-03-28T20:00:46.182Z,103343.20
2019-03-28T20:03:15.374Z,103343.74
2019-03-28T20:05:47.982Z,103333.06
2019-03-28T20:08:17.360Z,103335.64
2019-03-28T20:10:46.414Z,103335.64
2019-03-28T20:13:15.591Z,103337.43
2019-03-28T20:15:44.878Z,103332.16
2019-03-28T20:18:13.981Z,103336.08
2019-03-28T20:20:43.204Z,103332.05
2019-03-28T20:23:12.389Z,103336.47
2019-03-28T20:25:42.947Z,103343.17
2019-03-28T20:28:14.459Z,103333.38
2019-03-28T20:30:43.050Z,103341.91
2019-03-28T20:33:12.222Z,103329.58
2019-03-28T20:35:41.411Z,103343.88
2019-03-28T20:38:10.609Z,103347.37
2019-03-28T20:40:43.160Z,103349.61
2019-03-28T20:43:10.785Z,103350.43
2019-03-28T20:45:40.056Z,103350.43
2019-03-28T20:48:09.250Z,103349.09
2019-03-28T20:50:38.442Z,103349.21
2019-03-28T20:53:07.661Z,103354.48
2019-03-28T20:55:36.877Z,103347.80
2019-03-28T20:58:06.069Z,103354.97
2019-03-28T21:00:38.851Z,103354.48
2019-03-28T21:03:08.601Z,103352.75
2019-03-28T21:05:37.969Z,103356.85
2019-03-28T21:08:07.331Z,103356.85
2019-03-28T21:10:36.618Z,103363.21
2019-03-28T21:13:05.804Z,103363.21
2019-03-28T21:15:35.044Z,103356.56
2019-03-28T21:18:04.229Z,103359.20
2019-03-28T21:20:33.424Z,103359.20
2019-03-28T21:23:05.142Z,103356.58
2019-03-28T21:25:33.537Z,103363.86
2019-03-28T21:28:02.725Z,103363.86
2019-03-28T21:30:31.936Z,103365.20
2019-03-28T21:33:01.109Z,103365.20
2019-03-28T21:35:30.305Z,103367.45
2019-03-28T21:37:59.591Z,103359.38
2019-03-28T21:40:28.779Z,103359.38
2019-03-28T21:42:57.966Z,103359.84
2019-03-28T21:45:27.152Z,103361.72
2019-03-28T21:47:56.403Z,103361.72
2019-03-28T21:50:25.592Z,103365.29
2019-03-28T21:52:54.826Z,103364.34
2019-03-28T21:55:23.994Z,103344.25
2019-03-28T21:57:53.176Z,103344.25
2019-03-28T22:00:22.437Z,103346.52
2019-03-28T22:02:51.638Z,103347.78
2019-03-28T22:05:22.461Z,103352.28
2019-03-28T22:07:51.655Z,103352.28
2019-03-28T22:10:20.906Z,103343.43
2019-03-28T22:12:50.102Z,103347.45
2019-03-28T22:15:19.355Z,103347.45
2019-03-28T22:17:48.561Z,103350.59
2019-03-28T22:20:17.972Z,103350.59
2019-03-28T22:22:47.404Z,103338.54
2019-03-28T22:25:16.603Z,103338.08
2019-03-28T22:27:47.395Z,103338.08
2019-03-28T22:30:17.157Z,103337.69
2019-03-28T22:32:46.369Z,103339.07
2019-03-28T22:35:15.562Z,103329.17
2019-03-28T22:37:44.735Z,103326.94
2019-03-28T22:40:14.780Z,103334.58
2019-03-28T22:42:43.956Z,103334.58
2019-03-28T22:45:13.309Z,103339.54
2019-03-28T22:47:42.667Z,103333.66
2019-03-28T22:50:12.191Z,103330.56
2019-03-28T22:52:41.378Z,103327.52
2019-03-28T22:55:11.124Z,103325.36
2019-03-28T22:57:41.161Z,103334.73
2019-03-28T23:00:13.413Z,103330.30
2019-03-28T23:02:42.627Z,103330.30
2019-03-28T23:05:12.462Z,103322.22
2019-03-28T23:07:41.685Z,103330.11
2019-03-28T23:10:12.116Z,103328.75
2019-03-28T23:12:41.325Z,103328.75
2019-03-28T23:15:11.258Z,103327.50
2019-03-28T23:17:40.515Z,103327.50
2019-03-28T23:20:11.396Z,103321.30
2019-03-28T23:22:40.605Z,103321.41
2019-03-28T23:25:10.959Z,103321.41
2019-03-28T23:27:40.485Z,103320.48
2019-03-28T23:30:10.099Z,103316.95
2019-03-28T23:32:39.297Z,103307.62
2019-03-28T23:35:09.134Z,103320.09
2019-03-28T23:37:38.396Z,103312.52
2019-03-28T23:40:08.512Z,103312.52
2019-03-28T23:42:37.864Z,103308.95
2019-03-28T23:45:10.096Z,103301.88
2019-03-28T23:47:40.179Z,103301.88
2019-03-28T23:50:09.502Z,103302.81
2019-03-28T23:52:38.671Z,103294.39
2019-03-28T23:55:08.597Z,103294.39
2019-03-28T23:57:37.770Z,103287.97
